Time,TemperatureF,DewpointF,PressureIn,WindDirection,WindDirectionDegrees,WindSpeedMPH,WindSpeedGustMPH,Humidity,HourlyPrecipIn,Conditions,Clouds,dailyrainin,SoftwareType,DateUTC
2013-08-08 00:00:00,70.5,66.4,29.85,SSW,211,0.2,3.5,87,0.00,BKN,,0.00,WeatherDisplay:10.37,2013-08-08 04:00:00,
2013-08-08 00:01:00,70.5,66.4,29.85,SSW,211,0.3,5.0,87,0.00, +RA,,0.00,WeatherDisplay:10.37,2013-08-08 04:01:00,
2013-08-08 00:06:00,70.7,66.6,29.86,SSW,211,2.0,3.5,87,0.00, +RA,,0.00,WeatherDisplay:10.37,2013-08-08 04:06:00,
2013-08-08 00:11:00,70.8,66.7,29.85,SSW,210,0.5,3.5,87,0.00, +RA,,0.00,WeatherDisplay:10.37,2013-08-08 04:11:00,
2013-08-08 00:16:00,70.8,66.7,29.85,SSW,210,0.0,0.0,87,0.00, +RA,,0.00,WeatherDisplay:10.37,2013-08-08 04:16:00,
2013-08-08 00:21:00,70.7,66.6,29.84,SSW,210,0.0,0.0,87,0.00, +RA,,0.00,WeatherDisplay:10.37,2013-08-08 04:21:00,
2013-08-08 00:26:00,70.5,66.8,29.84,SSW,210,0.1,1.2,88,0.00, +RA,,0.00,WeatherDisplay:10.37,2013-08-08 04:26:00,
2013-08-08 00:31:00,70.2,66.5,29.84,SSW,210,0.0,0.0,88,0.00, +RA,,0.00,WeatherDisplay:10.37,2013-08-08 04:31:00,
2013-08-08 00:36:00,69.9,66.5,29.84,SSW,210,0.0,0.0,89,0.00, +RA,,0.00,WeatherDisplay:10.37,2013-08-08 04:36:00,
2013-08-08 00:41:00,69.7,66.3,29.84,SSW,209,0.2,2.3,89,0.00, +RA,,0.00,WeatherDisplay:10.37,2013-08-08 04:41:00,
2013-08-08 00:46:00,69.6,66.2,29.84,SSW,209,0.6,3.5,89,0.00, +RA,,0.00,WeatherDisplay:10.37,2013-08-08 04:46:00,
2013-08-08 00:51:00,69.5,66.4,29.84,SSW,209,0.3,0.0,90,0.00, +RA,,0.00,WeatherDisplay:10.37,2013-08-08 04:51:00,
2013-08-08 00:56:00,69.5,66.4,29.84,SSW,209,0.0,0.0,90,0.00, +RA,,0.00,WeatherDisplay:10.37,2013-08-08 04:56:00,
2013-08-08 01:01:00,69.5,66.4,29.84,SSW,209,0.0,0.0,90,0.00,OVC,,0.00,WeatherDisplay:10.37,2013-08-08 05:01:00,
2013-08-08 01:06:00,69.4,66.3,29.84,SSW,209,0.0,0.0,90,0.00,OVC,,0.00,WeatherDisplay:10.37,2013-08-08 05:06:00,
2013-08-08 01:11:00,69.4,66.3,29.84,SSW,209,0.0,0.0,90,0.00,OVC,,0.00,WeatherDisplay:10.37,2013-08-08 05:11:00,
2013-08-08 01:16:00,69.4,66.3,29.84,SSW,209,0.0,0.0,90,0.00,OVC,,0.00,WeatherDisplay:10.37,2013-08-08 05:16:00,
2013-08-08 01:21:00,69.3,66.2,29.83,SSW,209,0.0,0.0,90,0.00,OVC,,0.00,WeatherDisplay:10.37,2013-08-08 05:21:00,
2013-08-08 01:26:00,69.0,65.9,29.83,SSW,209,0.0,0.0,90,0.00,OVC,,0.00,WeatherDisplay:10.37,2013-08-08 05:26:00,
2013-08-08 01:31:00,68.8,65.7,29.83,SSW,209,0.9,3.5,90,0.00,OVC,,0.00,WeatherDisplay:10.37,2013-08-08 05:31:00,
2013-08-08 01:36:00,68.7,65.6,29.84,SSW,207,1.4,3.5,90,0.00,OVC,,0.00,WeatherDisplay:10.37,2013-08-08 05:36:00,
2013-08-08 01:41:00,68.8,66.1,29.83,SSW,208,0.0,0.0,91,0.00,OVC,,0.00,WeatherDisplay:10.37,2013-08-08 05:41:00,
2013-08-08 01:46:00,68.8,66.1,29.83,SSW,207,0.0,0.0,91,0.00,OVC,,0.00,WeatherDisplay:10.37,2013-08-08 05:46:00,
2013-08-08 01:51:00,68.8,66.1,29.83,SSW,207,0.0,0.0,91,0.00,OVC,,0.00,WeatherDisplay:10.37,2013-08-08 05:51:00,
2013-08-08 01:56:00,68.8,66.1,29.83,SSW,207,0.0,0.0,91,0.00,OVC,,0.00,WeatherDisplay:10.37,2013-08-08 05:56:00,
2013-08-08 02:01:00,68.8,66.1,29.83,SSW,208,0.0,0.0,91,0.00,BKN,,0.00,WeatherDisplay:10.37,2013-08-08 06:01:00,
2013-08-08 02:06:00,68.8,66.1,29.83,SSW,208,0.0,0.0,91,0.00,BKN,,0.00,WeatherDisplay:10.37,2013-08-08 06:06:00,
2013-08-08 02:11:00,68.8,66.1,29.83,SSW,208,0.0,0.0,91,0.00,BKN,,0.00,WeatherDisplay:10.37,2013-08-08 06:11:00,
2013-08-08 02:16:00,68.8,66.4,29.83,SSW,208,0.0,0.0,92,0.00,BKN,,0.00,WeatherDisplay:10.37,2013-08-08 06:16:00,
2013-08-08 02:21:00,68.8,66.4,29.83,SSW,207,0.0,0.0,92,0.00,BKN,,0.00,WeatherDisplay:10.37,2013-08-08 06:21:00,
2013-08-08 02:26:00,68.8,66.4,29.83,SSW,207,0.0,0.0,92,0.00,BKN,,0.00,WeatherDisplay:10.37,2013-08-08 06:26:00,
2013-08-08 02:31:00,68.9,66.5,29.84,SSW,207,0.0,0.0,92,0.00,BKN,,0.00,WeatherDisplay:10.37,2013-08-08 06:31:00,
2013-08-08 02:36:00,68.9,66.5,29.84,SSW,207,0.0,0.0,92,0.00,BKN,,0.00,WeatherDisplay:10.37,2013-08-08 06:36:00,
2013-08-08 02:41:00,69.0,66.6,29.84,SSW,208,0.0,0.0,92,0.00,BKN,,0.00,WeatherDisplay:10.37,2013-08-08 06:41:00,
2013-08-08 02:46:00,68.9,66.5,29.84,SSW,207,0.0,0.0,92,0.00,BKN,,0.00,WeatherDisplay:10.37,2013-08-08 06:46:00,
2013-08-08 02:51:00,69.1,66.7,29.85,SW,219,2.3,8.0,92,0.00,BKN,,0.00,WeatherDisplay:10.37,2013-08-08 06:51:00,
2013-08-08 02:56:00,69.6,67.2,29.85,SSW,205,6.4,11.5,92,0.00,BKN,,0.00,WeatherDisplay:10.37,2013-08-08 06:56:00,
2013-08-08 03:01:00,70.1,67.7,29.86,South,191,4.2,9.2,92,0.02,RA,,0.04,WeatherDisplay:10.37,2013-08-08 07:01:00,
2013-08-08 03:06:00,70.1,67.7,29.86,SSW,207,9.2,15.0,92,0.19,RA,,0.21,WeatherDisplay:10.37,2013-08-08 07:06:00,
2013-08-08 03:11:00,70.0,67.6,29.86,SW,232,7.4,15.0,92,0.42,RA,,0.46,WeatherDisplay:10.37,2013-08-08 07:11:00,
2013-08-08 03:16:00,69.9,67.5,29.85,SW,217,4.4,5.8,92,0.58,RA,,0.59,WeatherDisplay:10.37,2013-08-08 07:16:00,
2013-08-08 03:21:00,69.7,67.3,29.85,WSW,237,6.1,9.2,92,0.66,RA,,0.67,WeatherDisplay:10.37,2013-08-08 07:21:00,
2013-08-08 03:26:00,69.6,67.2,29.86,WSW,246,5.3,8.1,92,0.68,RA,,0.68,WeatherDisplay:10.37,2013-08-08 07:26:00,
2013-08-08 03:31:00,69.4,67.0,29.86,WSW,237,0.1,3.5,92,0.69,RA,,0.69,WeatherDisplay:10.37,2013-08-08 07:31:00,
2013-08-08 03:36:00,69.3,67.2,29.86,WSW,237,0.0,0.0,93,0.69,RA,,0.69,WeatherDisplay:10.37,2013-08-08 07:36:00,
2013-08-08 03:41:00,69.3,67.2,29.87,SW,218,2.2,3.5,93,0.70,RA,,0.70,WeatherDisplay:10.37,2013-08-08 07:41:00,
2013-08-08 03:46:00,69.2,66.8,29.87,SW,217,1.2,5.0,92,0.71,RA,,0.71,WeatherDisplay:10.37,2013-08-08 07:46:00,
2013-08-08 03:52:00,69.1,66.7,29.87,SW,217,0.0,0.0,92,0.71,RA,,0.71,WeatherDisplay:10.37,2013-08-08 07:52:00,
2013-08-08 03:57:00,69.0,66.6,29.87,SW,217,1.4,3.5,92,0.71,OVC,,0.71,WeatherDisplay:10.37,2013-08-08 07:57:00,
2013-08-08 04:02:00,69.0,66.6,29.87,SW,217,0.6,3.5,92,0.69,OVC,,0.71,WeatherDisplay:10.37,2013-08-08 08:02:00,
2013-08-08 04:07:00,68.9,66.8,29.86,SSE,154,1.3,3.5,93,0.52,OVC,,0.71,WeatherDisplay:10.37,2013-08-08 08:07:00,
2013-08-08 04:12:00,68.8,66.7,29.86,SSE,153,0.0,0.0,93,0.29,OVC,,0.71,WeatherDisplay:10.37,2013-08-08 08:12:00,
2013-08-08 04:17:00,68.6,66.5,29.86,SSE,155,0.0,2.3,93,0.13,OVC,,0.71,WeatherDisplay:10.37,2013-08-08 08:17:00,
2013-08-08 04:22:00,68.5,66.4,29.85,SSE,168,0.0,0.0,93,0.05,OVC,,0.71,WeatherDisplay:10.37,2013-08-08 08:22:00,
2013-08-08 04:27:00,68.5,66.1,29.85,SSE,168,0.0,0.0,92,0.03,OVC,,0.71,WeatherDisplay:10.37,2013-08-08 08:27:00,
2013-08-08 04:32:00,68.4,66.0,29.86,SSE,168,0.0,0.0,92,0.02,OVC,,0.71,WeatherDisplay:10.37,2013-08-08 08:32:00,
2013-08-08 04:37:00,68.3,65.9,29.85,SSE,168,0.0,0.0,92,0.03,RA,,0.72,WeatherDisplay:10.37,2013-08-08 08:37:00,
2013-08-08 04:42:00,68.2,66.1,29.86,SSE,168,0.0,0.0,93,0.00,RA,,0.72,WeatherDisplay:10.37,2013-08-08 08:42:00,
2013-08-08 04:47:00,68.1,66.0,29.86,SSE,168,0.0,0.0,93,0.01,OVC,,0.72,WeatherDisplay:10.37,2013-08-08 08:47:00,
2013-08-08 04:52:00,68.0,65.9,29.86,SSE,168,0.0,0.0,93,0.00,OVC,,0.72,WeatherDisplay:10.37,2013-08-08 08:52:00,
2013-08-08 04:57:00,67.9,65.8,29.87,SSE,168,0.0,0.0,93,0.01,OVC,,0.72,WeatherDisplay:10.37,2013-08-08 08:57:00,
2013-08-08 05:02:00,67.8,65.7,29.86,SSE,168,0.0,0.0,93,0.01,BKN,,0.72,WeatherDisplay:10.37,2013-08-08 09:02:00,
2013-08-08 05:07:00,67.7,65.6,29.87,SSE,168,0.0,0.0,93,0.01,BKN,,0.72,WeatherDisplay:10.37,2013-08-08 09:07:00,
2013-08-08 05:12:00,67.7,65.6,29.87,SSE,168,0.0,0.0,93,0.01,BKN,,0.72,WeatherDisplay:10.37,2013-08-08 09:12:00,
2013-08-08 05:17:00,67.6,65.5,29.87,SSE,168,0.0,0.0,93,0.01,BKN,,0.72,WeatherDisplay:10.37,2013-08-08 09:17:00,
2013-08-08 05:22:00,67.6,65.5,29.87,SSE,168,0.0,0.0,93,0.01,BKN,,0.72,WeatherDisplay:10.37,2013-08-08 09:22:00,
2013-08-08 05:27:00,67.6,65.5,29.87,SSE,168,0.0,0.0,93,0.01,BKN,,0.72,WeatherDisplay:10.37,2013-08-08 09:27:00,
2013-08-08 05:32:00,67.6,65.5,29.88,SSE,168,0.0,0.0,93,0.01,BKN,,0.72,WeatherDisplay:10.37,2013-08-08 09:32:00,
2013-08-08 05:37:00,67.6,65.5,29.87,SSE,168,0.0,0.0,93,0.00,BKN,,0.72,WeatherDisplay:10.37,2013-08-08 09:37:00,
2013-08-08 05:42:00,67.6,65.5,29.88,SSE,168,0.0,0.0,93,0.00,BKN,,0.72,WeatherDisplay:10.37,2013-08-08 09:42:00,
2013-08-08 05:47:00,67.5,65.4,29.87,SSE,168,0.0,0.0,93,0.00,BKN,,0.72,WeatherDisplay:10.37,2013-08-08 09:47:00,
2013-08-08 05:52:00,67.4,65.3,29.87,SSE,168,0.0,0.0,93,0.00,BKN,,0.72,WeatherDisplay:10.37,2013-08-08 09:52:00,
2013-08-08 05:57:00,67.3,65.2,29.87,SSE,168,0.0,0.0,93,0.00,BKN,,0.72,WeatherDisplay:10.37,2013-08-08 09:57:00,
2013-08-08 06:02:00,67.2,65.1,29.87,SSE,168,0.0,0.0,93,0.00,BKN,,0.72,WeatherDisplay:10.37,2013-08-08 10:02:00,
2013-08-08 06:07:00,67.0,64.9,29.87,SSE,168,0.0,0.0,93,0.00,BKN,,0.72,WeatherDisplay:10.37,2013-08-08 10:07:00,
2013-08-08 06:12:00,66.8,64.7,29.87,SSE,168,0.0,0.0,93,0.00,BKN,,0.72,WeatherDisplay:10.37,2013-08-08 10:12:00,
2013-08-08 06:17:00,66.7,64.6,29.87,SSE,168,0.0,0.0,93,0.00,BKN,,0.72,WeatherDisplay:10.37,2013-08-08 10:17:00,
2013-08-08 06:22:00,66.4,64.3,29.87,SSE,168,0.0,0.0,93,0.00,BKN,,0.72,WeatherDisplay:10.37,2013-08-08 10:22:00,
2013-08-08 06:27:00,66.2,64.1,29.87,SSE,168,0.0,0.0,93,0.00,BKN,,0.72,WeatherDisplay:10.37,2013-08-08 10:27:00,
2013-08-08 06:32:00,66.1,64.0,29.88,SSE,168,0.0,0.0,93,0.00,BKN,,0.72,WeatherDisplay:10.37,2013-08-08 10:32:00,
2013-08-08 06:37:00,66.0,63.9,29.88,SSE,168,0.0,0.0,93,0.00,BKN,,0.72,WeatherDisplay:10.37,2013-08-08 10:37:00,
2013-08-08 06:42:00,66.0,63.9,29.88,SSE,168,0.0,0.0,93,0.00,BKN,,0.72,WeatherDisplay:10.37,2013-08-08 10:42:00,
2013-08-08 06:47:00,65.8,63.7,29.87,SSE,168,0.0,0.0,93,0.00,BKN,,0.72,WeatherDisplay:10.37,2013-08-08 10:47:00,
2013-08-08 06:52:00,65.8,63.7,29.88,SSE,168,0.0,0.0,93,0.00,BKN,,0.72,WeatherDisplay:10.37,2013-08-08 10:52:00,
2013-08-08 06:57:00,65.7,63.6,29.88,SSE,168,0.0,0.0,93,0.00,BKN,,0.72,WeatherDisplay:10.37,2013-08-08 10:57:00,
2013-08-08 07:02:00,65.7,63.6,29.88,SSE,168,0.0,0.0,93,0.00,FEW,,0.72,WeatherDisplay:10.37,2013-08-08 11:02:00,
2013-08-08 07:07:00,65.6,63.5,29.87,SSE,168,0.0,0.0,93,0.00,FEW,,0.72,WeatherDisplay:10.37,2013-08-08 11:07:00,
2013-08-08 07:12:00,65.7,63.6,29.88,SSE,168,0.0,0.0,93,0.00,BKN,,0.72,WeatherDisplay:10.37,2013-08-08 11:12:00,
2013-08-08 07:17:00,65.7,63.6,29.88,SSE,168,0.0,0.0,93,0.00,BKN,,0.72,WeatherDisplay:10.37,2013-08-08 11:17:00,
2013-08-08 07:22:00,65.9,63.8,29.88,SSE,168,0.0,0.0,93,0.00,BKN,,0.72,WeatherDisplay:10.37,2013-08-08 11:22:00,
2013-08-08 07:27:00,66.1,64.0,29.88,SSE,168,0.0,0.0,93,0.00,BKN,,0.72,WeatherDisplay:10.37,2013-08-08 11:27:00,
2013-08-08 07:32:00,66.3,64.2,29.88,SSE,168,0.0,0.0,93,0.00,BKN,,0.72,WeatherDisplay:10.37,2013-08-08 11:32:00,
2013-08-08 07:37:00,66.6,64.5,29.88,SSE,168,0.0,0.0,93,0.00,BKN,,0.72,WeatherDisplay:10.37,2013-08-08 11:37:00,
2013-08-08 07:42:00,66.8,64.7,29.87,SSE,168,0.0,0.0,93,0.00,BKN,,0.72,WeatherDisplay:10.37,2013-08-08 11:42:00,
2013-08-08 07:47:00,67.1,65.0,29.88,SSE,168,0.0,0.0,93,0.00,BKN,,0.72,WeatherDisplay:10.37,2013-08-08 11:47:00,
2013-08-08 07:52:00,67.3,65.2,29.88,SSE,168,0.0,0.0,93,0.00,BKN,,0.72,WeatherDisplay:10.37,2013-08-08 11:52:00,
2013-08-08 07:57:00,67.6,65.5,29.88,SSE,168,0.0,0.0,93,0.00,BKN,,0.72,WeatherDisplay:10.37,2013-08-08 11:57:00,
2013-08-08 08:02:00,68.0,65.9,29.89,SSE,168,0.0,0.0,93,0.00,BKN,,0.72,WeatherDisplay:10.37,2013-08-08 12:02:00,
2013-08-08 08:07:00,68.4,66.3,29.88,SSE,168,0.0,0.0,93,0.00,BKN,,0.72,WeatherDisplay:10.37,2013-08-08 12:07:00,
2013-08-08 08:12:00,68.7,66.6,29.89,SSE,168,0.0,0.0,93,0.00,BKN,,0.72,WeatherDisplay:10.37,2013-08-08 12:12:00,
2013-08-08 08:17:00,68.9,66.8,29.89,SSE,168,0.1,1.2,93,0.00,BKN,,0.72,WeatherDisplay:10.37,2013-08-08 12:17:00,
2013-08-08 08:22:00,69.1,67.0,29.89,South,169,1.2,3.5,93,0.00,BKN,,0.72,WeatherDisplay:10.37,2013-08-08 12:22:00,
2013-08-08 08:27:00,69.3,67.2,29.89,South,169,0.5,0.0,93,0.00,BKN,,0.72,WeatherDisplay:10.37,2013-08-08 12:27:00,
2013-08-08 08:32:00,69.4,67.3,29.89,South,170,1.2,2.3,93,0.00,BKN,,0.72,WeatherDisplay:10.37,2013-08-08 12:32:00,
2013-08-08 08:37:00,69.5,67.4,29.89,South,170,0.0,2.3,93,0.00,BKN,,0.72,WeatherDisplay:10.37,2013-08-08 12:37:00,
2013-08-08 08:42:00,69.7,67.6,29.89,South,177,1.0,3.5,93,0.00,BKN,,0.72,WeatherDisplay:10.37,2013-08-08 12:42:00,
2013-08-08 08:47:00,69.7,67.6,29.89,South,176,0.0,0.0,93,0.00,BKN,,0.72,WeatherDisplay:10.37,2013-08-08 12:47:00,
2013-08-08 08:52:00,70.1,68.0,29.89,South,177,0.5,0.0,93,0.00,BKN,,0.72,WeatherDisplay:10.37,2013-08-08 12:52:00,
2013-08-08 08:57:00,70.4,68.3,29.89,South,177,0.0,0.0,93,0.00,BKN,,0.72,WeatherDisplay:10.37,2013-08-08 12:57:00,
2013-08-08 09:02:00,70.8,68.7,29.88,South,176,0.2,1.2,93,0.00,BKN,,0.72,WeatherDisplay:10.37,2013-08-08 13:02:00,
2013-08-08 09:08:00,71.1,69.0,29.89,South,177,0.9,3.5,93,0.00,BKN,,0.72,WeatherDisplay:10.37,2013-08-08 13:08:00,
2013-08-08 09:13:00,71.4,69.3,29.88,South,176,0.5,3.5,93,0.00,BKN,,0.72,WeatherDisplay:10.37,2013-08-08 13:13:00,
2013-08-08 09:18:00,71.7,69.3,29.88,South,186,1.4,5.8,92,0.00,BKN,,0.72,WeatherDisplay:10.37,2013-08-08 13:18:00,
2013-08-08 09:23:00,71.8,69.3,29.88,SSW,196,0.6,3.5,92,0.00,BKN,,0.72,WeatherDisplay:10.37,2013-08-08 13:23:00,
2013-08-08 09:28:00,72.1,70.0,29.88,SSW,196,0.0,1.2,93,0.00,BKN,,0.72,WeatherDisplay:10.37,2013-08-08 13:28:00,
2013-08-08 09:33:00,72.4,69.9,29.88,SSW,196,1.7,3.5,92,0.00,BKN,,0.72,WeatherDisplay:10.37,2013-08-08 13:33:00,
2013-08-08 09:38:00,72.9,70.8,29.89,SSW,196,0.0,1.2,93,0.00,BKN,,0.72,WeatherDisplay:10.37,2013-08-08 13:38:00,
2013-08-08 09:43:00,73.4,70.9,29.89,SSW,196,0.0,0.0,92,0.00,BKN,,0.72,WeatherDisplay:10.37,2013-08-08 13:43:00,
2013-08-08 09:48:00,73.9,71.7,29.89,SSW,197,0.1,2.3,93,0.00,BKN,,0.72,WeatherDisplay:10.37,2013-08-08 13:48:00,
2013-08-08 09:53:00,74.1,71.6,29.89,SSW,197,0.0,0.0,92,0.00,OVC,,0.72,WeatherDisplay:10.37,2013-08-08 13:53:00,
2013-08-08 09:58:00,74.3,71.8,29.88,SSW,197,0.0,0.0,92,0.00,OVC,,0.72,WeatherDisplay:10.37,2013-08-08 13:58:00,
2013-08-08 10:03:00,74.3,71.5,29.89,SSW,196,1.2,0.0,91,0.00,OVC,,0.72,WeatherDisplay:10.37,2013-08-08 14:03:00,
2013-08-08 10:08:00,74.0,70.9,29.89,South,186,0.0,3.5,90,0.00,OVC,,0.72,WeatherDisplay:10.37,2013-08-08 14:08:00,
2013-08-08 10:13:00,74.2,71.1,29.89,South,186,0.0,0.0,90,0.00,OVC,,0.72,WeatherDisplay:10.37,2013-08-08 14:13:00,
2013-08-08 10:18:00,74.0,70.5,29.89,South,187,2.0,3.0,89,0.00,OVC,,0.72,WeatherDisplay:10.37,2013-08-08 14:18:00,
2013-08-08 10:23:00,73.8,70.0,29.89,South,189,0.0,0.0,88,0.00,OVC,,0.72,WeatherDisplay:10.37,2013-08-08 14:23:00,
2013-08-08 10:28:00,74.0,70.2,29.89,South,189,0.0,0.0,88,0.00,OVC,,0.72,WeatherDisplay:10.37,2013-08-08 14:28:00,
2013-08-08 10:33:00,74.2,70.4,29.89,South,189,0.0,1.0,88,0.00,OVC,,0.72,WeatherDisplay:10.37,2013-08-08 14:33:00,
2013-08-08 10:38:00,74.4,70.3,29.89,South,189,0.0,0.0,87,0.00,OVC,,0.72,WeatherDisplay:10.37,2013-08-08 14:38:00,
2013-08-08 10:43:00,74.6,70.5,29.89,South,188,0.0,2.3,87,0.00,OVC,,0.72,WeatherDisplay:10.37,2013-08-08 14:43:00,
2013-08-08 10:48:00,74.6,70.1,29.89,South,189,0.0,0.0,86,0.00,OVC,,0.72,WeatherDisplay:10.37,2013-08-08 14:48:00,
2013-08-08 10:53:00,74.6,70.1,29.89,South,189,0.0,1.2,86,0.00,OVC,,0.72,WeatherDisplay:10.37,2013-08-08 14:53:00,
2013-08-08 10:58:00,74.6,70.5,29.89,South,188,0.0,1.0,87,0.00,OVC,,0.72,WeatherDisplay:10.37,2013-08-08 14:58:00,
2013-08-08 11:03:00,74.6,70.1,29.89,South,188,0.0,0.0,86,0.00,OVC,,0.72,WeatherDisplay:10.37,2013-08-08 15:03:00,
2013-08-08 11:08:00,74.7,70.6,29.89,South,189,0.0,0.0,87,0.00,OVC,,0.72,WeatherDisplay:10.37,2013-08-08 15:08:00,
2013-08-08 11:13:00,75.0,70.9,29.89,South,188,2.0,3.5,87,0.00,OVC,,0.72,WeatherDisplay:10.37,2013-08-08 15:13:00,
2013-08-08 11:18:00,75.1,70.6,29.90,SSW,193,0.8,3.5,86,0.00,OVC,,0.72,WeatherDisplay:10.37,2013-08-08 15:18:00,
2013-08-08 11:23:00,75.2,70.4,29.90,SSW,199,0.0,0.0,85,0.00,OVC,,0.72,WeatherDisplay:10.37,2013-08-08 15:23:00,
2013-08-08 11:28:00,75.8,71.7,29.89,SSW,199,0.0,0.0,87,0.00,OVC,,0.72,WeatherDisplay:10.37,2013-08-08 15:28:00,
2013-08-08 11:33:00,76.5,72.0,29.90,NNW,331,0.8,3.5,86,0.00,OVC,,0.72,WeatherDisplay:10.37,2013-08-08 15:33:00,
2013-08-08 11:38:00,76.8,71.6,29.90,North,11,0.1,3.5,84,0.00,OVC,,0.72,WeatherDisplay:10.37,2013-08-08 15:38:00,
2013-08-08 11:43:00,77.0,71.4,29.90,North,9,0.0,1.2,83,0.00,OVC,,0.72,WeatherDisplay:10.37,2013-08-08 15:43:00,
2013-08-08 11:48:00,77.1,71.2,29.90,North,9,0.0,0.0,82,0.00,OVC,,0.72,WeatherDisplay:10.37,2013-08-08 15:48:00,
2013-08-08 11:53:00,77.0,70.7,29.90,North,5,0.0,0.0,81,0.00,OVC,,0.72,WeatherDisplay:10.37,2013-08-08 15:53:00,
2013-08-08 11:58:00,76.7,71.1,29.90,WNW,284,1.5,3.5,83,0.00,OVC,,0.72,WeatherDisplay:10.37,2013-08-08 15:58:00,
2013-08-08 12:03:00,76.5,71.7,29.90,WNW,284,1.5,4.6,85,0.00,OVC,,0.72,WeatherDisplay:10.37,2013-08-08 16:03:00,
2013-08-08 12:08:00,76.5,71.7,29.90,WNW,285,0.0,0.0,85,0.00,OVC,,0.72,WeatherDisplay:10.37,2013-08-08 16:08:00,
2013-08-08 12:13:00,76.9,71.7,29.89,West,277,2.6,4.6,84,0.00,OVC,,0.72,WeatherDisplay:10.37,2013-08-08 16:13:00,
2013-08-08 12:18:00,77.3,71.7,29.90,WSW,256,0.0,0.0,83,0.00,OVC,,0.72,WeatherDisplay:10.37,2013-08-08 16:18:00,
2013-08-08 12:23:00,77.6,72.0,29.90,West,278,1.4,3.5,83,0.00,BKN,,0.72,WeatherDisplay:10.37,2013-08-08 16:23:00,
2013-08-08 12:28:00,77.8,72.2,29.89,NW,305,0.1,1.2,83,0.00,BKN,,0.72,WeatherDisplay:10.37,2013-08-08 16:28:00,
2013-08-08 12:33:00,77.8,71.9,29.90,WNW,298,2.6,3.5,82,0.00,BKN,,0.72,WeatherDisplay:10.37,2013-08-08 16:33:00,
2013-08-08 12:38:00,77.7,72.1,29.89,WNW,289,3.3,5.8,83,0.00,BKN,,0.72,WeatherDisplay:10.37,2013-08-08 16:38:00,
2013-08-08 12:43:00,77.3,71.7,29.90,West,268,0.1,3.5,83,0.00,BKN,,0.72,WeatherDisplay:10.37,2013-08-08 16:43:00,
2013-08-08 12:48:00,77.3,72.1,29.89,West,269,2.3,3.5,84,0.00,BKN,,0.72,WeatherDisplay:10.37,2013-08-08 16:48:00,
2013-08-08 12:53:00,77.2,72.0,29.90,West,269,0.0,1.2,84,0.00,BKN,,0.72,WeatherDisplay:10.37,2013-08-08 16:53:00,
2013-08-08 12:58:00,77.6,72.7,29.89,West,269,0.6,5.0,85,0.00,BKN,,0.72,WeatherDisplay:10.37,2013-08-08 16:58:00,
2013-08-08 13:03:00,77.9,72.3,29.89,West,269,0.0,0.0,83,0.00,BKN,,0.72,WeatherDisplay:10.37,2013-08-08 17:03:00,
2013-08-08 13:08:00,78.3,72.7,29.89,West,270,1.4,3.5,83,0.00,BKN,,0.72,WeatherDisplay:10.37,2013-08-08 17:08:00,
2013-08-08 13:13:00,78.7,72.7,29.89,West,281,4.0,4.6,82,0.00,BKN,,0.72,WeatherDisplay:10.37,2013-08-08 17:13:00,
2013-08-08 13:18:00,78.5,71.8,29.89,West,259,5.0,8.1,80,0.00,BKN,,0.72,WeatherDisplay:10.37,2013-08-08 17:18:00,
2013-08-08 13:23:00,78.5,71.8,29.89,WSW,252,1.7,3.5,80,0.00,BKN,,0.72,WeatherDisplay:10.37,2013-08-08 17:23:00,
2013-08-08 13:24:00,78.5,71.8,29.89,WSW,252,1.2,3.5,80,0.00,BKN,,0.72,WeatherDisplay:10.37,2013-08-08 17:24:00,
2013-08-08 13:29:00,78.7,72.4,29.89,West,265,3.4,5.8,81,0.00,BKN,,0.72,WeatherDisplay:10.37,2013-08-08 17:29:00,
2013-08-08 13:34:00,78.8,72.5,29.89,WSW,238,0.1,5.8,81,0.00,BKN,,0.72,WeatherDisplay:10.37,2013-08-08 17:34:00,
2013-08-08 13:39:00,78.9,72.2,29.89,WSW,249,3.6,3.6,80,0.00,BKN,,0.72,WeatherDisplay:10.37,2013-08-08 17:39:00,
2013-08-08 13:44:00,79.0,71.9,29.89,WSW,254,2.8,5.8,79,0.00,BKN,,0.72,WeatherDisplay:10.37,2013-08-08 17:44:00,
2013-08-08 13:49:00,79.2,72.1,29.89,WSW,246,0.0,3.5,79,0.00,BKN,,0.72,WeatherDisplay:10.37,2013-08-08 17:49:00,
2013-08-08 13:54:00,79.6,72.5,29.89,WSW,246,2.4,3.5,79,0.00,BKN,,0.72,WeatherDisplay:10.37,2013-08-08 17:54:00,
2013-08-08 13:59:00,79.3,71.8,29.89,WSW,238,1.4,4.6,78,0.00,BKN,,0.72,WeatherDisplay:10.37,2013-08-08 17:59:00,
2013-08-08 14:04:00,79.4,71.9,29.89,SW,217,0.6,3.5,78,0.00,BKN,,0.72,WeatherDisplay:10.37,2013-08-08 18:04:00,
2013-08-08 14:09:00,79.4,72.7,29.88,West,261,0.6,2.3,80,0.00,BKN,,0.72,WeatherDisplay:10.37,2013-08-08 18:09:00,
2013-08-08 14:14:00,79.6,72.9,29.88,WNW,290,0.6,1.2,80,0.00,BKN,,0.72,WeatherDisplay:10.37,2013-08-08 18:14:00,
2013-08-08 14:19:00,79.7,72.6,29.88,WNW,302,0.7,0.0,79,0.00,BKN,,0.72,WeatherDisplay:10.37,2013-08-08 18:19:00,
2013-08-08 14:24:00,79.8,73.1,29.88,WNW,299,0.0,0.0,80,0.00,BKN,,0.72,WeatherDisplay:10.37,2013-08-08 18:24:00,
2013-08-08 14:29:00,80.1,73.0,29.88,WNW,298,1.0,3.0,79,0.00,BKN,,0.72,WeatherDisplay:10.37,2013-08-08 18:29:00,
2013-08-08 14:34:00,80.5,73.4,29.88,WNW,284,2.6,4.0,79,0.00,BKN,,0.72,WeatherDisplay:10.37,2013-08-08 18:34:00,
2013-08-08 14:39:00,80.3,72.8,29.88,West,262,2.0,3.0,78,0.00,BKN,,0.72,WeatherDisplay:10.37,2013-08-08 18:39:00,
2013-08-08 14:44:00,80.9,74.1,29.88,West,259,0.0,4.0,80,0.00,BKN,,0.72,WeatherDisplay:10.37,2013-08-08 18:44:00,
2013-08-08 14:49:00,81.2,73.3,29.88,West,277,4.0,6.9,77,0.00,BKN,,0.72,WeatherDisplay:10.37,2013-08-08 18:49:00,
2013-08-08 14:54:00,81.1,73.6,29.88,West,277,3.0,7.0,78,0.00,BKN,,0.72,WeatherDisplay:10.37,2013-08-08 18:54:00,
2013-08-08 14:59:00,80.9,73.3,29.87,WSW,252,2.0,4.0,78,0.00,BKN,,0.72,WeatherDisplay:10.37,2013-08-08 18:59:00,
2013-08-08 15:04:00,80.4,72.5,29.87,West,270,2.5,2.5,77,0.00,OVC,,0.72,WeatherDisplay:10.37,2013-08-08 19:04:00,
2013-08-08 15:09:00,80.2,73.1,29.87,NW,313,2.7,8.1,79,0.00,OVC,,0.72,WeatherDisplay:10.37,2013-08-08 19:09:00,
2013-08-08 15:14:00,80.3,74.3,29.87,NNW,344,2.2,3.5,82,0.00,OVC,,0.72,WeatherDisplay:10.37,2013-08-08 19:14:00,
2013-08-08 15:19:00,80.1,73.7,29.87,NNE,29,5.3,8.1,81,0.00,OVC,,0.72,WeatherDisplay:10.37,2013-08-08 19:19:00,
2013-08-08 15:24:00,79.8,73.4,29.87,North,11,3.0,6.0,81,0.00,OVC,,0.72,WeatherDisplay:10.37,2013-08-08 19:24:00,
2013-08-08 15:29:00,79.8,73.8,29.87,North,355,5.0,8.0,82,0.00,OVC,,0.72,WeatherDisplay:10.37,2013-08-08 19:29:00,
2013-08-08 15:34:00,79.4,73.1,29.88,NW,315,5.3,9.2,81,0.00,OVC,,0.72,WeatherDisplay:10.37,2013-08-08 19:34:00,
2013-08-08 15:39:00,79.0,72.6,29.88,NNW,346,5.0,9.0,81,0.00,OVC,,0.72,WeatherDisplay:10.37,2013-08-08 19:39:00,
2013-08-08 15:44:00,78.3,72.0,29.88,North,355,3.7,6.9,81,0.00,OVC,,0.72,WeatherDisplay:10.37,2013-08-08 19:44:00,
2013-08-08 15:49:00,77.9,72.0,29.87,North,355,2.7,8.1,82,0.00,OVC,,0.72,WeatherDisplay:10.37,2013-08-08 19:49:00,
2013-08-08 15:54:00,77.7,72.1,29.87,North,1,2.0,7.0,83,0.00,OVC,,0.72,WeatherDisplay:10.37,2013-08-08 19:54:00,
2013-08-08 15:59:00,77.8,72.6,29.87,NW,305,2.1,4.6,84,0.00,OVC,,0.72,WeatherDisplay:10.37,2013-08-08 19:59:00,
2013-08-08 16:04:00,78.0,72.8,29.87,NW,309,1.5,5.8,84,0.00,BKN,,0.72,WeatherDisplay:10.37,2013-08-08 20:04:00,
2013-08-08 16:09:00,78.6,73.0,29.87,NW,319,5.4,8.1,83,0.00,BKN,,0.72,WeatherDisplay:10.37,2013-08-08 20:09:00,
2013-08-08 16:14:00,78.7,72.7,29.86,WNW,303,4.1,7.0,82,0.00,BKN,,0.72,WeatherDisplay:10.37,2013-08-08 20:14:00,
2013-08-08 16:19:00,78.8,72.5,29.86,NNW,338,4.0,8.1,81,0.00,BKN,,0.72,WeatherDisplay:10.37,2013-08-08 20:19:00,
2013-08-08 16:24:00,78.5,71.8,29.86,NNW,334,2.3,7.0,80,0.00,BKN,,0.72,WeatherDisplay:10.37,2013-08-08 20:24:00,
2013-08-08 16:29:00,78.3,72.3,29.86,NNE,21,2.8,4.6,82,0.00,BKN,,0.72,WeatherDisplay:10.37,2013-08-08 20:29:00,
2013-08-08 16:34:00,78.5,72.5,29.86,NNW,327,4.0,9.2,82,0.00,BKN,,0.72,WeatherDisplay:10.37,2013-08-08 20:34:00,
2013-08-08 16:39:00,78.7,72.4,29.87,WNW,295,3.2,6.9,81,0.00,BKN,,0.72,WeatherDisplay:10.37,2013-08-08 20:39:00,
2013-08-08 16:44:00,78.7,72.0,29.87,NNW,340,3.2,6.9,80,0.00,BKN,,0.72,WeatherDisplay:10.37,2013-08-08 20:44:00,
2013-08-08 16:49:00,78.7,72.4,29.86,NNW,338,0.4,2.3,81,0.00,BKN,,0.72,WeatherDisplay:10.37,2013-08-08 20:49:00,
2013-08-08 16:54:00,78.7,72.4,29.86,North,355,4.2,6.9,81,0.00,BKN,,0.72,WeatherDisplay:10.37,2013-08-08 20:54:00,
2013-08-08 16:59:00,78.9,72.2,29.86,North,10,2.2,5.8,80,0.00,BKN,,0.72,WeatherDisplay:10.37,2013-08-08 20:59:00,
2013-08-08 17:04:00,79.0,71.9,29.86,WNW,290,4.9,9.2,79,0.00,BKN,,0.72,WeatherDisplay:10.37,2013-08-08 21:04:00,
2013-08-08 17:09:00,78.8,71.7,29.86,North,360,2.2,4.6,79,0.00,BKN,,0.72,WeatherDisplay:10.37,2013-08-08 21:09:00,
2013-08-08 17:14:00,78.7,71.6,29.86,North,10,2.8,5.8,79,0.00,BKN,,0.72,WeatherDisplay:10.37,2013-08-08 21:14:00,
2013-08-08 17:19:00,78.5,71.8,29.86,NNE,14,0.1,3.5,80,0.00,BKN,,0.72,WeatherDisplay:10.37,2013-08-08 21:19:00,
2013-08-08 17:24:00,78.3,71.6,29.86,North,360,0.8,3.5,80,0.00,BKN,,0.72,WeatherDisplay:10.37,2013-08-08 21:24:00,
2013-08-08 17:30:00,78.2,71.2,29.86,North,5,2.0,4.6,79,0.00,BKN,,0.72,WeatherDisplay:10.37,2013-08-08 21:30:00,
2013-08-08 17:35:00,78.3,71.6,29.86,NNE,15,2.1,4.0,80,0.00,BKN,,0.72,WeatherDisplay:10.37,2013-08-08 21:35:00,
2013-08-08 17:40:00,78.3,71.6,29.85,NNE,26,3.3,4.6,80,0.00,,,0.72,WeatherDisplay:10.37,2013-08-08 21:40:00,
2013-08-08 17:45:00,78.4,71.7,29.86,NNE,26,1.5,3.5,80,0.00,BKN,,0.72,WeatherDisplay:10.37,2013-08-08 21:45:00,
2013-08-08 17:51:00,78.7,72.0,29.86,NNE,26,1.0,5.0,80,0.00,BKN,,0.72,WeatherDisplay:10.37,2013-08-08 21:51:00,
2013-08-08 17:56:00,78.9,71.8,29.86,NNE,26,1.0,5.0,79,0.00,BKN,,0.72,WeatherDisplay:10.37,2013-08-08 21:56:00,
2013-08-08 18:01:00,78.9,71.8,29.86,NNE,25,2.0,4.0,79,0.00,SCT,,0.72,WeatherDisplay:10.37,2013-08-08 22:01:00,
2013-08-08 18:06:00,79.1,71.6,29.86,NNE,27,1.6,4.0,78,0.00,SCT,,0.72,WeatherDisplay:10.37,2013-08-08 22:06:00,
2013-08-08 18:11:00,79.0,71.6,29.86,NNE,26,2.2,4.6,78,0.00,SCT,,0.72,WeatherDisplay:10.37,2013-08-08 22:11:00,
2013-08-08 18:17:00,78.7,71.3,29.86,NNE,28,2.7,5.8,78,0.00,SCT,,0.72,WeatherDisplay:10.37,2013-08-08 22:17:00,
2013-08-08 18:22:00,78.7,71.6,29.86,NE,36,0.0,3.5,79,0.00,SCT,,0.72,WeatherDisplay:10.37,2013-08-08 22:22:00,
2013-08-08 18:27:00,78.3,71.2,29.86,NE,39,2.2,3.5,79,0.00,SCT,,0.72,WeatherDisplay:10.37,2013-08-08 22:27:00,
2013-08-08 18:32:00,78.1,71.4,29.86,NE,38,2.0,3.0,80,0.00,SCT,,0.72,WeatherDisplay:10.37,2013-08-08 22:32:00,
2013-08-08 18:37:00,77.9,71.6,29.86,NE,38,3.4,4.6,81,0.00,SCT,,0.72,WeatherDisplay:10.37,2013-08-08 22:37:00,
2013-08-08 18:42:00,77.7,71.4,29.86,NE,40,1.4,2.3,81,0.00,SCT,,0.72,WeatherDisplay:10.37,2013-08-08 22:42:00,
2013-08-08 18:47:00,77.6,71.7,29.86,NE,41,1.9,3.5,82,0.00,SCT,,0.72,WeatherDisplay:10.37,2013-08-08 22:47:00,
2013-08-08 18:53:00,77.5,71.5,29.86,NE,41,2.0,3.0,82,0.00,SCT,,0.72,WeatherDisplay:10.37,2013-08-08 22:53:00,
2013-08-08 18:58:00,77.3,71.7,29.86,NE,40,1.0,3.0,83,0.00,SCT,,0.72,WeatherDisplay:10.37,2013-08-08 22:58:00,
2013-08-08 19:03:00,77.1,71.5,29.86,NE,40,0.3,2.3,83,0.00,BKN,,0.72,WeatherDisplay:10.37,2013-08-08 23:03:00,
2013-08-08 19:08:00,77.0,71.8,29.86,NE,40,0.9,3.5,84,0.00,BKN,,0.72,WeatherDisplay:10.37,2013-08-08 23:08:00,
2013-08-08 19:13:00,76.8,71.9,29.86,NE,40,0.0,0.0,85,0.00,BKN,,0.72,WeatherDisplay:10.37,2013-08-08 23:13:00,
2013-08-08 19:18:00,76.7,71.8,29.86,NE,40,0.9,3.5,85,0.00,BKN,,0.72,WeatherDisplay:10.37,2013-08-08 23:18:00,
2013-08-08 19:24:00,76.4,71.9,29.86,NE,40,0.1,3.5,86,0.00,BKN,,0.72,WeatherDisplay:10.37,2013-08-08 23:24:00,
2013-08-08 19:29:00,76.2,71.4,29.86,NE,40,0.1,2.3,85,0.00,BKN,,0.72,WeatherDisplay:10.37,2013-08-08 23:29:00,
2013-08-08 19:34:00,76.0,71.5,29.86,NE,40,0.0,0.0,86,0.00,BKN,,0.72,WeatherDisplay:10.37,2013-08-08 23:34:00,
2013-08-08 19:39:00,75.7,71.2,29.86,NE,40,0.0,0.0,86,0.00,BKN,,0.72,WeatherDisplay:10.37,2013-08-08 23:39:00,
2013-08-08 19:44:00,75.5,71.4,29.86,NE,40,0.0,0.0,87,0.00,BKN,,0.72,WeatherDisplay:10.37,2013-08-08 23:44:00,
2013-08-08 19:49:00,75.4,71.6,29.86,NE,40,0.0,0.0,88,0.00,BKN,,0.72,WeatherDisplay:10.37,2013-08-08 23:49:00,
2013-08-08 19:54:00,75.2,71.4,29.86,NE,40,0.0,0.0,88,0.00,BKN,,0.72,WeatherDisplay:10.37,2013-08-08 23:54:00,
2013-08-08 19:59:00,75.0,71.5,29.86,NE,40,0.0,0.0,89,0.00,BKN,,0.72,WeatherDisplay:10.37,2013-08-08 23:59:00,
2013-08-08 20:04:00,74.9,71.4,29.86,NE,40,0.0,0.0,89,0.00,BKN,,0.72,WeatherDisplay:10.37,2013-08-09 00:04:00,
2013-08-08 20:10:00,74.8,71.7,29.86,NE,40,0.0,0.0,90,0.00,BKN,,0.72,WeatherDisplay:10.37,2013-08-09 00:10:00,
2013-08-08 20:15:00,74.6,71.1,29.86,NE,40,0.0,0.0,89,0.00,BKN,,0.72,WeatherDisplay:10.37,2013-08-09 00:15:00,
2013-08-08 20:21:00,74.4,71.3,29.86,NE,40,0.0,0.0,90,0.00,BKN,,0.72,WeatherDisplay:10.37,2013-08-09 00:21:00,
2013-08-08 20:26:00,74.3,71.2,29.86,NE,40,0.0,1.0,90,0.00,BKN,,0.72,WeatherDisplay:10.37,2013-08-09 00:26:00,
2013-08-08 20:31:00,74.3,71.2,29.86,NE,40,0.0,0.0,90,0.00,BKN,,0.72,WeatherDisplay:10.37,2013-08-09 00:31:00,
2013-08-08 20:36:00,74.2,71.1,29.86,NE,40,0.0,0.0,90,0.00,BKN,,0.72,WeatherDisplay:10.37,2013-08-09 00:36:00,
2013-08-08 20:41:00,74.2,71.4,29.86,NE,40,0.0,0.0,91,0.00,BKN,,0.72,WeatherDisplay:10.37,2013-08-09 00:41:00,
2013-08-08 20:46:00,74.1,71.3,29.86,NE,40,0.0,0.0,91,0.00,BKN,,0.72,WeatherDisplay:10.37,2013-08-09 00:46:00,
2013-08-08 20:51:00,74.1,71.3,29.86,NE,40,0.0,0.0,91,0.00,BKN,,0.72,WeatherDisplay:10.37,2013-08-09 00:51:00,
2013-08-08 20:56:00,74.0,71.2,29.87,NE,40,0.0,0.0,91,0.00,BKN,,0.72,WeatherDisplay:10.37,2013-08-09 00:56:00,
2013-08-08 21:01:00,73.9,71.1,29.87,NE,40,0.0,0.0,91,0.00,OVC,,0.72,WeatherDisplay:10.37,2013-08-09 01:01:00,
2013-08-08 21:06:00,73.8,71.0,29.86,NE,40,0.0,0.0,91,0.00,OVC,,0.72,WeatherDisplay:10.37,2013-08-09 01:06:00,
2013-08-08 21:12:00,73.7,70.9,29.87,NE,40,0.0,0.0,91,0.00,OVC,,0.72,WeatherDisplay:10.37,2013-08-09 01:12:00,
2013-08-08 21:17:00,73.7,70.9,29.86,NE,40,0.0,0.0,91,0.00,OVC,,0.72,WeatherDisplay:10.37,2013-08-09 01:17:00,
2013-08-08 21:22:00,73.6,70.8,29.86,NE,40,0.0,0.0,91,0.00,OVC,,0.72,WeatherDisplay:10.37,2013-08-09 01:22:00,
2013-08-08 21:27:00,73.4,70.6,29.87,NE,40,0.0,0.0,91,0.00,OVC,,0.72,WeatherDisplay:10.37,2013-08-09 01:27:00,
2013-08-08 21:32:00,73.2,70.4,29.86,NE,40,0.0,0.0,91,0.00,OVC,,0.72,WeatherDisplay:10.37,2013-08-09 01:32:00,
2013-08-08 21:37:00,73.1,70.3,29.86,NE,40,0.0,0.0,91,0.00,OVC,,0.72,WeatherDisplay:10.37,2013-08-09 01:37:00,
2013-08-08 21:42:00,73.0,70.2,29.86,NE,40,0.0,0.0,91,0.00,OVC,,0.72,WeatherDisplay:10.37,2013-08-09 01:42:00,
2013-08-08 21:47:00,73.1,70.6,29.86,NE,47,0.0,0.0,92,0.00,OVC,,0.72,WeatherDisplay:10.37,2013-08-09 01:47:00,
2013-08-08 21:52:00,73.1,70.6,29.86,NE,51,0.0,0.0,92,0.00,OVC,,0.72,WeatherDisplay:10.37,2013-08-09 01:52:00,
2013-08-08 21:57:00,73.1,70.6,29.86,NE,50,0.0,0.0,92,0.00,OVC,,0.72,WeatherDisplay:10.37,2013-08-09 01:57:00,
2013-08-08 22:02:00,73.1,70.6,29.87,NE,50,0.0,0.0,92,0.00,-RA,,0.72,WeatherDisplay:10.37,2013-08-09 02:02:00,
2013-08-08 22:07:00,73.2,70.7,29.87,NE,50,0.0,0.0,92,0.00,-RA,,0.72,WeatherDisplay:10.37,2013-08-09 02:07:00,
2013-08-08 22:12:00,73.1,70.6,29.87,NE,50,0.0,0.0,92,0.00,-RA,,0.72,WeatherDisplay:10.37,2013-08-09 02:12:00,
2013-08-08 22:17:00,73.1,70.6,29.86,NE,50,0.0,0.0,92,0.00,-RA,,0.72,WeatherDisplay:10.37,2013-08-09 02:17:00,
2013-08-08 22:22:00,73.0,70.5,29.86,NE,50,0.0,0.0,92,0.00,-RA,,0.72,WeatherDisplay:10.37,2013-08-09 02:22:00,
2013-08-08 22:27:00,72.9,70.4,29.86,NE,50,0.0,0.0,92,0.00,-RA,,0.72,WeatherDisplay:10.37,2013-08-09 02:27:00,
2013-08-08 22:32:00,72.9,70.4,29.86,NE,50,0.0,0.0,92,0.00,-RA,,0.72,WeatherDisplay:10.37,2013-08-09 02:32:00,
2013-08-08 22:37:00,72.9,70.4,29.86,NE,50,0.0,0.0,92,0.00,-RA,,0.72,WeatherDisplay:10.37,2013-08-09 02:37:00,
2013-08-08 22:42:00,72.9,70.4,29.87,NE,50,0.0,0.0,92,0.00,-RA,,0.72,WeatherDisplay:10.37,2013-08-09 02:42:00,
2013-08-08 22:47:00,73.1,70.6,29.87,NNE,30,0.0,0.0,92,0.00,-RA,,0.72,WeatherDisplay:10.37,2013-08-09 02:47:00,
2013-08-08 22:53:00,73.2,70.7,29.87,NNE,17,2.0,4.0,92,0.00,-RA,,0.72,WeatherDisplay:10.37,2013-08-09 02:53:00,
2013-08-08 22:58:00,73.2,70.8,29.87,North,349,2.0,3.0,92,0.00,-RA,,0.72,WeatherDisplay:10.37,2013-08-09 02:58:00,
2013-08-08 23:03:00,73.2,70.7,29.87,NW,315,4.4,6.9,92,0.00,-RA,,0.73,WeatherDisplay:10.37,2013-08-09 03:03:00,
2013-08-08 23:09:00,73.0,70.5,29.87,NNW,346,4.6,9.2,92,0.01,-RA,,0.74,WeatherDisplay:10.37,2013-08-09 03:09:00,
2013-08-08 23:14:00,72.4,69.9,29.87,NNW,343,0.0,0.0,92,0.13,-RA,,0.86,WeatherDisplay:10.37,2013-08-09 03:14:00,
2013-08-08 23:20:00,72.3,69.8,29.86,North,360,0.5,3.5,92,0.16,-RA,,0.88,WeatherDisplay:10.37,2013-08-09 03:20:00,
2013-08-08 23:25:00,72.2,69.7,29.86,NNE,28,0.2,1.2,92,0.16,RA,,0.88,WeatherDisplay:10.37,2013-08-09 03:25:00,
2013-08-08 23:30:00,72.1,69.6,29.87,NNE,28,0.3,4.0,92,0.17,RA,,0.89,WeatherDisplay:10.37,2013-08-09 03:30:00,
2013-08-08 23:36:00,72.1,69.6,29.87,NNE,28,2.0,3.5,92,0.18,RA,,0.90,WeatherDisplay:10.37,2013-08-09 03:36:00,
2013-08-08 23:41:00,72.0,69.5,29.87,NNE,28,0.0,0.0,92,0.00,RA,,0.91,WeatherDisplay:10.37,2013-08-09 03:41:00,
2013-08-08 23:46:00,72.0,69.5,29.87,NNE,28,0.0,3.0,92,0.00,RA,,0.91,WeatherDisplay:10.37,2013-08-09 03:46:00,
2013-08-08 23:51:00,72.1,70.0,29.87,NNE,28,0.0,0.0,93,0.19,OVC,,0.91,WeatherDisplay:10.37,2013-08-09 03:51:00,
2013-08-08 23:56:00,72.1,70.0,29.86,NNE,28,0.0,0.0,93,0.19,OVC,,0.91,WeatherDisplay:10.37,2013-08-09 03:56:00,